createdAt,value
2019-05-13T00:00:25.360Z,3.25
2019-05-13T00:04:27.905Z,3.29
2019-05-13T00:08:30.125Z,3.39
2019-05-13T00:12:32.221Z,3.44
2019-05-13T00:16:34.458Z,3.47
2019-05-13T00:20:36.837Z,3.54
2019-05-13T00:24:38.918Z,3.61
2019-05-13T00:28:41.208Z,3.55
2019-05-13T00:32:44.647Z,3.41
2019-05-13T00:36:47.147Z,3.42
2019-05-13T00:40:49.348Z,3.31
2019-05-13T00:44:53.232Z,3.16
2019-05-13T00:48:55.349Z,2.96
2019-05-13T00:52:57.759Z,2.83
2019-05-13T00:57:00.004Z,2.71
2019-05-13T01:01:03.592Z,2.63
2019-05-13T01:05:06.790Z,2.55
2019-05-13T01:09:09.577Z,2.47
2019-05-13T01:13:13.617Z,2.46
2019-05-13T01:17:15.906Z,2.46
2019-05-13T01:21:18.010Z,2.37
2019-05-13T01:25:20.228Z,2.26
2019-05-13T01:29:23.812Z,2.16
2019-05-13T01:33:26.329Z,2.18
2019-05-13T01:37:41.948Z,2.24
2019-05-13T01:41:33.380Z,2.49
2019-05-13T01:45:35.825Z,2.78
2019-05-13T01:49:38.015Z,2.91
2019-05-13T01:53:40.147Z,2.91
2019-05-13T01:57:44.348Z,2.88
2019-05-13T02:01:46.190Z,2.98
2019-05-13T02:05:48.352Z,3.09
2019-05-13T02:09:52.945Z,3.21
2019-05-13T02:13:54.813Z,3.26
2019-05-13T02:17:56.934Z,3.37
2019-05-13T02:21:59.111Z,3.41
2019-05-13T02:26:01.355Z,3.43
2019-05-13T02:30:05.468Z,3.43
2019-05-13T02:34:07.465Z,3.44
2019-05-13T02:38:19.549Z,3.48
2019-05-13T02:42:13.759Z,3.52
2019-05-13T02:46:15.965Z,3.52
2019-05-13T02:50:18.242Z,3.53
2019-05-13T02:54:22.884Z,3.59
2019-05-13T02:58:25.582Z,3.63
2019-05-13T03:02:27.920Z,3.70
2019-05-13T03:06:33.219Z,3.77
2019-05-13T03:10:34.235Z,3.90
2019-05-13T03:14:36.323Z,3.92
2019-05-13T03:18:38.633Z,3.92
2019-05-13T03:22:43.366Z,4.02
2019-05-13T03:26:44.856Z,4.09
2019-05-13T03:30:47.260Z,4.03
2019-05-13T03:34:55.161Z,4.09
2019-05-13T03:39:05.122Z,4.12
2019-05-13T03:43:02.665Z,4.34
2019-05-13T03:47:05.202Z,4.36
2019-05-13T03:51:07.367Z,4.57
2019-05-13T03:55:12.770Z,4.59
2019-05-13T03:59:14.365Z,4.67
2019-05-13T04:03:16.839Z,4.58
2019-05-13T04:07:19.125Z,4.53
2019-05-13T04:11:22.574Z,4.54
2019-05-13T04:15:24.999Z,4.55
2019-05-13T04:19:27.754Z,4.70
2019-05-13T04:23:32.287Z,4.82
2019-05-13T04:27:33.992Z,4.83
2019-05-13T04:31:36.315Z,4.82
2019-05-13T04:35:38.853Z,4.89
2019-05-13T04:39:50.012Z,4.94
2019-05-13T04:43:45.350Z,4.96
2019-05-13T04:47:47.640Z,4.97
2019-05-13T04:51:52.306Z,5.02
2019-05-13T04:55:54.165Z,5.12
2019-05-13T04:59:56.445Z,5.33
2019-05-13T05:04:11.707Z,5.38
2019-05-13T05:08:48.138Z,5.33
2019-05-13T05:13:12.798Z,5.43
2019-05-13T05:17:53.081Z,5.38
2019-05-13T05:22:13.271Z,5.36
2019-05-13T05:26:53.785Z,5.43
2019-05-13T05:31:34.976Z,5.61
2019-05-13T05:36:13.823Z,5.61
2019-05-13T05:40:30.968Z,5.81
2019-05-13T05:44:24.833Z,5.97
2019-05-13T05:48:31.376Z,5.86
2019-05-13T05:52:34.888Z,5.94
2019-05-13T05:56:41.475Z,6.09
2019-05-13T06:00:44.660Z,6.29
2019-05-13T06:04:51.999Z,6.40
2019-05-13T06:08:54.293Z,6.66
2019-05-13T06:12:56.993Z,6.65
2019-05-13T06:16:59.122Z,6.82
2019-05-13T06:21:01.817Z,6.94
2019-05-13T06:25:04.096Z,7.06
2019-05-13T06:29:06.572Z,7.42
2019-05-13T06:33:08.786Z,7.65
2019-05-13T06:37:11.549Z,7.50
2019-05-13T06:41:14.824Z,7.61
2019-05-13T06:45:17.358Z,7.77
2019-05-13T06:49:21.499Z,8.43
2019-05-13T06:53:23.196Z,8.53
2019-05-13T06:57:25.170Z,8.70
2019-05-13T07:01:28.473Z,8.50
2019-05-13T07:05:31.819Z,9.22
2019-05-13T07:09:33.794Z,9.40
2019-05-13T07:13:35.955Z,9.59
2019-05-13T07:17:38.166Z,9.23
2019-05-13T07:21:41.735Z,9.29
2019-05-13T07:25:44.214Z,9.51
2019-05-13T07:29:46.069Z,9.64
2019-05-13T07:33:48.193Z,9.49
2019-05-13T07:37:51.750Z,9.62
2019-05-13T07:41:54.065Z,9.53
2019-05-13T07:45:56.291Z,9.42
2019-05-13T07:49:58.500Z,9.84
2019-05-13T07:54:02.188Z,9.84
2019-05-13T07:58:04.433Z,9.87
2019-05-13T08:02:06.476Z,9.94
2019-05-13T08:06:08.465Z,10.42
2019-05-13T08:10:11.665Z,9.96
2019-05-13T08:14:15.054Z,9.75
2019-05-13T08:18:17.595Z,9.71
2019-05-13T08:22:22.091Z,10.07
2019-05-13T08:26:23.265Z,10.23
2019-05-13T08:30:25.723Z,10.53
2019-05-13T08:34:27.958Z,10.69
2019-05-13T08:38:31.874Z,10.31
2019-05-13T08:42:33.764Z,10.21
2019-05-13T08:46:36.071Z,10.50
2019-05-13T08:50:38.235Z,10.57
2019-05-13T08:54:41.858Z,10.55
2019-05-13T08:58:44.122Z,10.77
2019-05-13T09:02:46.234Z,10.51
2019-05-13T09:06:48.577Z,10.86
2019-05-13T09:10:52.043Z,11.05
2019-05-13T09:14:54.651Z,11.03
2019-05-13T09:18:56.681Z,10.90
2019-05-13T09:23:02.026Z,11.14
2019-05-13T09:27:04.113Z,11.27
2019-05-13T09:31:06.248Z,11.51
2019-05-13T09:35:08.596Z,11.54
2019-05-13T09:39:12.610Z,11.75
2019-05-13T09:43:14.598Z,11.73
2019-05-13T09:47:16.683Z,12.02
2019-05-13T09:51:18.781Z,12.35
2019-05-13T09:55:26.389Z,12.10
2019-05-13T09:59:24.969Z,11.86
2019-05-13T10:03:29.671Z,11.59
2019-05-13T10:07:31.889Z,11.67
2019-05-13T10:11:34.114Z,11.96
2019-05-13T10:15:36.390Z,12.20
2019-05-13T10:19:38.631Z,12.26
2019-05-13T10:23:41.776Z,12.42
2019-05-13T10:27:44.434Z,12.70
2019-05-13T10:31:46.778Z,12.83
2019-05-13T10:35:52.314Z,13.08
2019-05-13T10:39:56.230Z,12.73
2019-05-13T10:43:58.393Z,12.57
2019-05-13T10:48:02.808Z,12.26
2019-05-13T10:52:04.609Z,12.62
2019-05-13T10:56:06.842Z,13.24
2019-05-13T11:00:12.228Z,13.01
2019-05-13T11:04:14.110Z,12.88
2019-05-13T11:08:16.104Z,12.94
2019-05-13T11:12:18.279Z,13.42
2019-05-13T11:16:22.579Z,13.33
2019-05-13T11:20:24.777Z,13.47
2019-05-13T11:24:27.069Z,13.22
2019-05-13T11:28:29.625Z,13.12
2019-05-13T11:32:33.029Z,12.78
2019-05-13T11:36:35.339Z,12.62
2019-05-13T11:40:37.698Z,13.04
2019-05-13T11:44:40.064Z,12.87
2019-05-13T11:48:43.793Z,12.65
2019-05-13T11:52:45.938Z,12.51
2019-05-13T11:56:50.461Z,12.85
2019-05-13T12:00:58.110Z,13.28
2019-05-13T12:05:03.736Z,13.44
2019-05-13T12:09:06.044Z,12.87
2019-05-13T12:13:08.229Z,12.55
2019-05-13T12:17:14.157Z,12.75
2019-05-13T12:21:14.416Z,12.77
2019-05-13T12:25:16.652Z,12.76
2019-05-13T12:29:19.473Z,12.84
2019-05-13T12:33:22.694Z,12.71
2019-05-13T12:37:25.299Z,13.05
2019-05-13T12:41:28.400Z,12.94
2019-05-13T12:45:30.814Z,12.64
2019-05-13T12:49:36.688Z,12.83
2019-05-13T12:53:37.389Z,13.58
2019-05-13T12:57:39.664Z,12.92
2019-05-13T13:01:41.771Z,12.95
2019-05-13T13:05:44.249Z,13.20
2019-05-13T13:09:46.290Z,13.21
2019-05-13T13:13:59.506Z,12.89
2019-05-13T13:17:54.023Z,13.04
2019-05-13T13:22:03.295Z,13.01
2019-05-13T13:26:02.990Z,12.80
2019-05-13T13:30:08.405Z,12.91
2019-05-13T13:34:13.573Z,12.68
2019-05-13T13:38:14.132Z,12.82
2019-05-13T13:42:16.683Z,12.99
2019-05-13T13:46:33.918Z,12.97
2019-05-13T13:50:24.637Z,12.85
2019-05-13T13:54:26.766Z,12.99
2019-05-13T13:58:29.443Z,13.01
2019-05-13T14:02:37.021Z,12.62
2019-05-13T14:10:41.999Z,12.46
2019-05-13T14:14:44.144Z,12.58
2019-05-13T14:18:46.449Z,12.60
2019-05-13T14:22:57.256Z,12.40
2019-05-13T14:26:55.132Z,12.61
2019-05-13T14:30:57.647Z,13.11
2019-05-13T14:35:01.724Z,12.80
2019-05-13T14:39:04.915Z,12.77
2019-05-13T14:43:08.995Z,13.06
2019-05-13T14:47:22.726Z,13.30
2019-05-13T14:51:15.149Z,12.99
2019-05-13T14:55:17.277Z,12.90
2019-05-13T14:59:21.874Z,12.84
2019-05-13T15:03:23.703Z,12.86
2019-05-13T15:07:25.844Z,12.61
2019-05-13T15:11:28.545Z,12.08
2019-05-13T15:15:31.677Z,11.96
2019-05-13T15:19:34.130Z,12.07
2019-05-13T15:23:36.370Z,11.82
2019-05-13T15:27:41.334Z,11.92
2019-05-13T15:31:43.081Z,11.91
2019-05-13T15:35:45.307Z,12.05
2019-05-13T15:39:47.656Z,12.06
2019-05-13T15:43:51.960Z,12.10
2019-05-13T15:47:54.229Z,11.88
2019-05-13T15:51:56.377Z,11.78
2019-05-13T15:55:58.495Z,11.70
2019-05-13T16:00:01.943Z,11.73
2019-05-13T16:04:04.502Z,11.90
2019-05-13T16:08:06.673Z,11.74
2019-05-13T16:12:08.994Z,11.44
2019-05-13T16:16:12.192Z,11.50
2019-05-13T16:20:14.418Z,11.35
2019-05-13T16:24:16.664Z,11.32
2019-05-13T16:28:18.933Z,11.15
2019-05-13T16:32:22.747Z,11.12
2019-05-13T16:36:25.137Z,11.01
2019-05-13T16:40:27.259Z,11.10
2019-05-13T16:44:31.822Z,10.98
2019-05-13T16:48:33.837Z,11.00
2019-05-13T16:52:36.152Z,11.05
2019-05-13T16:56:38.357Z,11.09
2019-05-13T17:00:42.466Z,11.05
2019-05-13T17:04:44.499Z,10.79
2019-05-13T17:08:46.760Z,10.69
2019-05-13T17:12:49.067Z,10.72
2019-05-13T17:16:51.872Z,10.64
2019-05-13T17:20:54.162Z,10.59
2019-05-13T17:24:56.466Z,10.57
2019-05-13T17:28:58.697Z,10.35
2019-05-13T17:33:02.273Z,10.20
2019-05-13T17:37:04.827Z,10.09
2019-05-13T17:41:07.151Z,9.97
2019-05-13T17:45:11.472Z,9.90
2019-05-13T17:49:14.041Z,9.85
2019-05-13T17:53:16.085Z,9.80
2019-05-13T17:57:18.424Z,9.80
2019-05-13T18:01:21.217Z,9.77
2019-05-13T18:05:23.685Z,9.72
2019-05-13T18:09:25.807Z,9.68
2019-05-13T18:13:28.126Z,9.65
2019-05-13T18:17:31.186Z,9.55
2019-05-13T18:21:34.458Z,9.48
2019-05-13T18:25:36.615Z,9.41
2019-05-13T18:29:38.938Z,9.31
2019-05-13T18:33:42.426Z,9.17
2019-05-13T18:37:44.624Z,9.08
2019-05-13T18:41:46.828Z,9.03
2019-05-13T18:45:48.898Z,8.89
2019-05-13T18:49:52.321Z,8.87
2019-05-13T18:53:54.516Z,8.77
2019-05-13T18:57:57.729Z,8.58
2019-05-13T19:02:01.477Z,8.48
2019-05-13T19:06:04.809Z,8.35
2019-05-13T19:10:07.858Z,8.06
2019-05-13T19:14:12.269Z,7.62
2019-05-13T19:18:14.076Z,7.27
2019-05-13T19:22:16.217Z,6.98
2019-05-13T19:26:18.531Z,6.74
2019-05-13T19:30:21.285Z,6.61
2019-05-13T19:34:23.728Z,6.44
2019-05-13T19:38:25.818Z,6.34
2019-05-13T19:42:28.072Z,6.22
2019-05-13T19:46:31.462Z,6.02
2019-05-13T19:50:33.819Z,5.89
2019-05-13T19:54:36.114Z,5.72
2019-05-13T19:58:38.445Z,5.62
2019-05-13T20:02:42.166Z,5.49
2019-05-13T20:06:44.619Z,5.39
2019-05-13T20:10:46.780Z,5.34
2019-05-13T20:14:48.882Z,5.25
2019-05-13T20:18:51.807Z,5.18
2019-05-13T20:22:54.758Z,5.20
2019-05-13T20:26:56.919Z,5.26
2019-05-13T20:31:01.649Z,5.26
2019-05-13T20:35:03.227Z,5.52
2019-05-13T20:39:06.523Z,5.82
2019-05-13T20:43:08.790Z,5.97
2019-05-13T20:47:10.912Z,5.78
2019-05-13T20:51:13.063Z,5.87
2019-05-13T20:55:16.518Z,5.86
2019-05-13T20:59:21.336Z,5.95
2019-05-13T21:03:22.776Z,5.99
2019-05-13T21:07:24.898Z,5.95
2019-05-13T21:11:27.312Z,6.00
2019-05-13T21:15:31.580Z,5.90
2019-05-13T21:19:39.121Z,5.95
2019-05-13T21:23:37.724Z,6.07
2019-05-13T21:27:41.978Z,5.96
2019-05-13T21:31:44.633Z,5.94
2019-05-13T21:35:46.757Z,5.95
2019-05-13T21:39:48.942Z,5.80
2019-05-13T21:43:52.068Z,5.75
2019-05-13T21:47:54.267Z,5.65
2019-05-13T21:51:56.413Z,5.61
2019-05-13T21:55:58.654Z,5.65
2019-05-13T22:00:02.039Z,5.73
2019-05-13T22:04:05.836Z,5.71
2019-05-13T22:08:08.073Z,5.76
2019-05-13T22:12:10.200Z,5.72
2019-05-13T22:16:12.336Z,5.66
2019-05-13T22:20:14.634Z,5.63
2019-05-13T22:24:16.796Z,5.70
2019-05-13T22:28:19.043Z,5.65
2019-05-13T22:32:22.020Z,5.62
2019-05-13T22:36:24.357Z,5.63
2019-05-13T22:40:26.528Z,5.63
2019-05-13T22:44:28.784Z,5.62
2019-05-13T22:48:31.781Z,5.61
2019-05-13T22:52:34.228Z,5.57
2019-05-13T22:56:36.665Z,5.56
2019-05-13T23:00:38.830Z,5.55
2019-05-13T23:04:43.511Z,5.54
2019-05-13T23:08:45.546Z,5.46
2019-05-13T23:12:47.759Z,5.45
2019-05-13T23:16:50.001Z,5.42
2019-05-13T23:20:52.218Z,5.46
2019-05-13T23:24:54.647Z,5.48
2019-05-13T23:28:57.030Z,5.49
2019-05-13T23:32:59.325Z,5.46
2019-05-13T23:37:03.061Z,5.40
2019-05-13T23:41:05.330Z,5.36
2019-05-13T23:45:08.142Z,5.32
2019-05-13T23:49:11.819Z,5.34
2019-05-13T23:53:14.307Z,5.33
2019-05-13T23:57:17.832Z,5.25
